createdAt,value
2022-12-14T00:00:33.659Z,2.02
2022-12-14T00:03:03.263Z,2.10
2022-12-14T00:05:32.839Z,2.00
2022-12-14T00:08:02.354Z,2.43
2022-12-14T00:10:33.818Z,2.60
2022-12-14T00:13:03.827Z,2.50
2022-12-14T00:15:33.813Z,2.67
2022-12-14T00:18:03.380Z,2.70
2022-12-14T00:20:34.838Z,2.90
2022-12-14T00:23:04.545Z,2.40
2022-12-14T00:25:34.006Z,2.70
2022-12-14T00:28:03.458Z,2.83
2022-12-14T00:30:32.902Z,2.40
2022-12-14T00:33:02.337Z,2.57
2022-12-14T00:35:31.789Z,2.60
2022-12-14T00:38:01.230Z,2.63
2022-12-14T00:40:30.671Z,2.57
2022-12-14T00:43:00.493Z,2.60
2022-12-14T00:45:29.966Z,2.80
2022-12-14T00:47:59.410Z,2.73
2022-12-14T00:50:28.926Z,3.00
2022-12-14T00:52:58.371Z,2.70
2022-12-14T00:55:27.832Z,2.40
2022-12-14T00:57:57.274Z,2.27
2022-12-14T01:00:26.727Z,2.20
2022-12-14T01:02:56.169Z,2.10
2022-12-14T01:05:25.894Z,2.17
2022-12-14T01:07:55.408Z,2.23
2022-12-14T01:10:25.297Z,2.37
2022-12-14T01:12:54.913Z,2.20
2022-12-14T01:15:24.434Z,2.33
2022-12-14T01:17:54.051Z,2.90
2022-12-14T01:20:23.502Z,2.50
2022-12-14T01:22:57.466Z,2.80
2022-12-14T01:25:27.568Z,2.13
2022-12-14T01:27:57.021Z,2.60
2022-12-14T01:30:26.537Z,2.37
2022-12-14T01:32:55.982Z,2.37
2022-12-14T01:35:25.429Z,2.60
2022-12-14T01:37:54.862Z,2.80
2022-12-14T01:40:24.321Z,2.15
2022-12-14T01:42:53.755Z,1.80
2022-12-14T01:45:24.351Z,2.60
2022-12-14T01:48:03.492Z,2.80
2022-12-14T01:50:39.958Z,2.10
2022-12-14T01:53:14.331Z,2.20
2022-12-14T01:55:51.571Z,2.60
2022-12-14T01:58:25.290Z,2.53
2022-12-14T02:01:01.561Z,2.53
2022-12-14T02:03:38.340Z,2.47
2022-12-14T02:06:15.361Z,2.70
2022-12-14T02:08:47.168Z,2.20
2022-12-14T02:11:20.293Z,1.87
2022-12-14T02:13:49.728Z,1.90
2022-12-14T02:16:19.383Z,1.80
2022-12-14T02:18:48.846Z,2.03
2022-12-14T02:21:26.019Z,1.77
2022-12-14T02:24:21.260Z,2.43
2022-12-14T02:27:07.167Z,2.20
2022-12-14T02:29:57.513Z,2.37
2022-12-14T02:32:34.570Z,2.47
2022-12-14T02:35:11.404Z,1.80
2022-12-14T02:38:09.150Z,1.90
2022-12-14T02:40:54.182Z,1.80
2022-12-14T02:43:31.151Z,1.80
2022-12-14T02:46:26.278Z,1.80
2022-12-14T02:49:00.365Z,1.80
2022-12-14T02:51:49.345Z,1.93
2022-12-14T02:55:01.418Z,1.90
2022-12-14T02:57:40.837Z,1.97
2022-12-14T03:00:11.505Z,1.70
2022-12-14T03:02:44.845Z,2.27
2022-12-14T03:05:14.573Z,2.07
2022-12-14T03:07:48.728Z,2.50
2022-12-14T03:10:48.724Z,3.17
2022-12-14T03:13:25.663Z,2.50
2022-12-14T03:16:18.165Z,2.20
2022-12-14T03:19:04.079Z,2.20
2022-12-14T03:21:40.581Z,2.23
2022-12-14T03:24:14.646Z,2.43
2022-12-14T03:27:03.395Z,2.30
2022-12-14T03:29:43.086Z,2.50
2022-12-14T03:32:18.884Z,2.50
2022-12-14T03:35:04.736Z,2.83
2022-12-14T03:38:13.781Z,2.27
2022-12-14T03:41:02.159Z,2.60
2022-12-14T03:43:57.425Z,2.43
2022-12-14T03:46:31.860Z,2.23
2022-12-14T03:49:11.431Z,2.20
2022-12-14T03:51:45.491Z,2.27
2022-12-14T03:54:31.153Z,2.00
2022-12-14T03:57:08.123Z,2.37
2022-12-14T03:59:54.200Z,2.13
2022-12-14T04:02:41.154Z,2.20
2022-12-14T04:05:15.264Z,2.87
2022-12-14T04:08:18.078Z,2.37
2022-12-14T04:11:09.862Z,2.23
2022-12-14T04:14:04.471Z,2.00
2022-12-14T04:16:56.275Z,2.13
2022-12-14T04:19:30.429Z,2.00
2022-12-14T04:22:04.505Z,1.90
2022-12-14T04:24:56.329Z,1.83
2022-12-14T04:27:48.375Z,2.20
2022-12-14T04:30:18.657Z,2.00
2022-12-14T04:33:03.439Z,2.17
2022-12-14T04:35:40.460Z,2.37
2022-12-14T04:38:14.678Z,3.20
2022-12-14T04:40:51.449Z,2.73
2022-12-14T04:43:28.682Z,2.40
2022-12-14T04:46:02.842Z,2.40
2022-12-14T04:49:02.823Z,2.50
2022-12-14T04:51:52.024Z,2.37
2022-12-14T04:54:31.568Z,1.80
2022-12-14T04:57:19.874Z,1.87
2022-12-14T04:59:50.624Z,2.53
2022-12-14T05:02:48.836Z,2.80
2022-12-14T05:05:43.741Z,2.77
2022-12-14T05:08:35.391Z,2.93
2022-12-14T05:11:51.888Z,2.70
2022-12-14T05:13:58.613Z,3.50
2022-12-14T05:16:28.151Z,3.30
2022-12-14T05:18:57.671Z,3.80
2022-12-14T05:21:45.183Z,4.40
2022-12-14T05:24:15.364Z,4.40
2022-12-14T05:26:45.731Z,5.03
2022-12-14T05:29:15.320Z,5.83
2022-12-14T05:31:49.443Z,4.60
2022-12-14T05:34:16.034Z,5.60
2022-12-14T05:36:45.487Z,5.13
2022-12-14T05:39:16.444Z,5.13
2022-12-14T05:41:45.973Z,4.90
2022-12-14T05:44:15.419Z,4.63
2022-12-14T05:46:44.882Z,4.67
2022-12-14T05:49:14.426Z,4.73
2022-12-14T05:51:44.260Z,5.00
2022-12-14T05:54:13.783Z,4.33
2022-12-14T05:56:43.234Z,4.47
2022-12-14T05:59:14.337Z,3.47
2022-12-14T06:01:49.090Z,2.80
2022-12-14T06:04:18.792Z,2.30
2022-12-14T06:06:48.471Z,2.30
2022-12-14T06:09:18.825Z,1.97
2022-12-14T06:11:50.026Z,2.07
2022-12-14T06:14:19.898Z,1.60
2022-12-14T06:16:49.825Z,2.30
2022-12-14T06:19:19.273Z,2.50
2022-12-14T06:21:48.720Z,2.80
2022-12-14T06:24:18.171Z,2.00
2022-12-14T06:26:47.620Z,2.33
2022-12-14T06:29:20.066Z,1.83
2022-12-14T06:31:49.984Z,1.80
2022-12-14T06:34:24.817Z,2.13
2022-12-14T06:36:51.377Z,2.20
2022-12-14T06:39:20.811Z,2.27
2022-12-14T06:41:53.460Z,2.83
2022-12-14T06:44:22.963Z,2.33
2022-12-14T06:46:52.494Z,1.53
2022-12-14T06:49:22.217Z,2.70
2022-12-14T06:51:52.117Z,3.10
2022-12-14T06:54:21.656Z,2.70
2022-12-14T06:56:51.487Z,3.03
2022-12-14T06:59:20.990Z,2.80
2022-12-14T07:01:50.885Z,3.20
2022-12-14T07:04:21.633Z,3.17
2022-12-14T07:06:51.276Z,3.07
2022-12-14T07:09:20.704Z,3.00
2022-12-14T07:11:52.427Z,3.43
2022-12-14T07:14:21.853Z,3.80
2022-12-14T07:16:52.554Z,3.13
2022-12-14T07:19:21.996Z,3.07
2022-12-14T07:21:51.438Z,3.00
2022-12-14T07:24:20.864Z,3.60
2022-12-14T07:26:50.298Z,3.37
2022-12-14T07:29:19.728Z,3.00
2022-12-14T07:31:49.951Z,2.40
2022-12-14T07:34:19.453Z,2.37
2022-12-14T07:36:54.200Z,2.37
2022-12-14T07:39:24.178Z,1.97
2022-12-14T07:41:54.609Z,2.20
2022-12-14T07:44:24.104Z,2.33
2022-12-14T07:46:55.282Z,1.90
2022-12-14T07:49:24.715Z,1.80
2022-12-14T07:51:54.615Z,2.40
2022-12-14T07:54:25.025Z,2.50
2022-12-14T07:56:54.449Z,3.03
2022-12-14T07:59:24.133Z,3.37
2022-12-14T08:01:56.156Z,3.23
2022-12-14T08:04:25.783Z,3.97
2022-12-14T08:06:55.409Z,3.67
2022-12-14T08:09:24.927Z,3.20
2022-12-14T08:11:54.360Z,3.93
2022-12-14T08:14:23.880Z,3.67
2022-12-14T08:16:53.512Z,3.27
2022-12-14T08:19:23.017Z,3.60
2022-12-14T08:21:52.481Z,3.40
2022-12-14T08:24:21.917Z,3.10
2022-12-14T08:26:51.388Z,3.07
2022-12-14T08:29:22.265Z,3.70
2022-12-14T08:31:51.786Z,3.87
2022-12-14T08:34:22.863Z,3.73
2022-12-14T08:36:52.600Z,4.67
2022-12-14T08:39:22.081Z,6.17
2022-12-14T08:41:52.209Z,5.33
2022-12-14T08:44:21.655Z,4.40
2022-12-14T08:46:51.213Z,5.23
2022-12-14T08:49:20.740Z,5.10
2022-12-14T08:51:50.203Z,7.97
2022-12-14T08:54:19.656Z,6.60
2022-12-14T08:56:49.295Z,5.97
2022-12-14T08:59:43.944Z,5.73
2022-12-14T09:01:50.442Z,5.73
2022-12-14T09:04:20.676Z,6.37
2022-12-14T09:06:50.134Z,5.33
2022-12-14T09:09:19.569Z,4.70
2022-12-14T09:11:49.026Z,4.53
2022-12-14T09:14:18.478Z,3.87
2022-12-14T09:16:48.016Z,5.53
2022-12-14T09:19:17.453Z,6.40
2022-12-14T09:21:46.971Z,5.13
2022-12-14T09:24:16.443Z,4.60
2022-12-14T09:26:47.022Z,4.83
2022-12-14T09:29:20.072Z,4.00
2022-12-14T09:31:49.578Z,4.60
2022-12-14T09:34:19.424Z,4.47
2022-12-14T09:36:49.055Z,4.20
2022-12-14T09:39:18.498Z,5.03
2022-12-14T09:42:21.636Z,5.20
2022-12-14T09:45:10.238Z,4.33
2022-12-14T09:48:05.494Z,5.43
2022-12-14T09:50:35.736Z,4.67
2022-12-14T09:53:12.228Z,4.20
2022-12-14T09:55:48.595Z,3.60
2022-12-14T09:58:22.816Z,3.80
2022-12-14T10:01:25.737Z,3.87
2022-12-14T10:04:08.730Z,3.57
2022-12-14T10:06:51.848Z,4.40
2022-12-14T10:09:45.995Z,5.43
2022-12-14T10:12:38.419Z,5.63
2022-12-14T10:15:40.463Z,4.60
2022-12-14T10:18:59.033Z,5.53
2022-12-14T10:21:20.222Z,4.50
2022-12-14T10:24:03.041Z,4.63
2022-12-14T10:26:40.297Z,4.23
2022-12-14T10:29:23.553Z,5.40
2022-12-14T10:32:00.444Z,5.10
2022-12-14T10:34:33.345Z,4.20
2022-12-14T10:37:12.938Z,4.43
2022-12-14T10:40:05.895Z,4.13
2022-12-14T10:42:42.667Z,3.73
2022-12-14T10:45:57.736Z,5.00
2022-12-14T10:48:46.419Z,4.80
2022-12-14T10:51:44.519Z,4.40
2022-12-14T10:54:33.879Z,4.17
2022-12-14T10:57:03.551Z,5.10
2022-12-14T10:59:46.871Z,4.97
2022-12-14T11:02:21.457Z,5.40
2022-12-14T11:04:55.180Z,4.93
2022-12-14T11:07:42.416Z,6.53
2022-12-14T11:10:29.777Z,6.40
2022-12-14T11:13:21.749Z,6.23
2022-12-14T11:15:53.703Z,6.70
2022-12-14T11:18:32.352Z,6.67
2022-12-14T11:21:06.449Z,5.70
2022-12-14T11:23:48.150Z,5.27
2022-12-14T11:26:23.847Z,6.17
2022-12-14T11:28:57.962Z,6.37
2022-12-14T11:31:40.926Z,4.80
2022-12-14T11:34:32.991Z,5.03
2022-12-14T11:37:26.340Z,4.80
2022-12-14T11:40:04.006Z,6.10
2022-12-14T11:42:34.367Z,5.87
2022-12-14T11:45:28.351Z,5.20
2022-12-14T11:48:20.256Z,4.80
2022-12-14T11:50:52.583Z,4.77
2022-12-14T11:53:24.037Z,5.63
2022-12-14T11:56:00.727Z,4.90
2022-12-14T11:58:34.640Z,4.67
2022-12-14T12:01:14.796Z,4.70
2022-12-14T12:03:52.241Z,5.23
2022-12-14T12:06:29.639Z,5.30
2022-12-14T12:09:03.613Z,4.73
2022-12-14T12:11:36.325Z,4.33
2022-12-14T12:14:10.370Z,5.90
2022-12-14T12:16:45.057Z,4.47
2022-12-14T12:19:21.875Z,5.23
2022-12-14T12:21:52.349Z,5.00
2022-12-14T12:24:32.305Z,5.43
2022-12-14T12:27:13.338Z,4.37
2022-12-14T12:29:55.884Z,4.70
2022-12-14T12:32:51.591Z,4.70
2022-12-14T12:35:37.642Z,4.73
2022-12-14T12:38:20.287Z,4.93
2022-12-14T12:41:22.961Z,4.97
2022-12-14T12:43:59.508Z,5.27
2022-12-14T12:46:59.675Z,4.93
2022-12-14T12:49:15.502Z,5.80
2022-12-14T12:52:01.045Z,5.77
2022-12-14T12:54:35.269Z,6.00
2022-12-14T12:57:08.157Z,6.20
2022-12-14T12:59:47.888Z,6.00
2022-12-14T13:02:24.941Z,6.03
2022-12-14T13:04:55.971Z,5.50
2022-12-14T13:07:41.649Z,5.67
2022-12-14T13:10:33.580Z,5.00
2022-12-14T13:13:13.467Z,4.97
2022-12-14T13:15:50.702Z,5.13
2022-12-14T13:18:59.739Z,4.67
2022-12-14T13:21:26.681Z,3.63
2022-12-14T13:23:56.506Z,4.00
2022-12-14T13:27:00.481Z,5.00
2022-12-14T13:30:03.682Z,5.63
2022-12-14T13:32:54.356Z,5.47
2022-12-14T13:36:07.681Z,5.90
2022-12-14T13:39:04.105Z,5.40
2022-12-14T13:41:47.042Z,5.27
2022-12-14T13:44:43.751Z,5.70
2022-12-14T13:47:17.150Z,5.27
2022-12-14T13:52:39.632Z,6.07
2022-12-14T13:55:28.585Z,6.17
2022-12-14T13:58:22.037Z,4.97
2022-12-14T14:00:58.340Z,4.47
2022-12-14T14:03:41.560Z,4.10
2022-12-14T14:06:21.766Z,3.90
2022-12-14T14:08:53.804Z,3.90
2022-12-14T14:11:38.442Z,5.50
2022-12-14T14:14:06.237Z,4.07
2022-12-14T14:16:40.337Z,3.20
2022-12-14T14:19:14.427Z,2.47
2022-12-14T14:22:14.019Z,2.00
2022-12-14T14:24:22.378Z,2.40
2022-12-14T14:27:02.168Z,3.07
2022-12-14T14:29:33.336Z,5.60
2022-12-14T14:32:06.193Z,4.23
2022-12-14T14:34:49.023Z,3.63
2022-12-14T14:37:27.527Z,3.80
2022-12-14T14:40:20.860Z,3.80
2022-12-14T14:42:58.925Z,5.10
2022-12-14T14:45:45.133Z,5.33
2022-12-14T14:48:25.406Z,3.97
2022-12-14T14:51:16.940Z,3.70
2022-12-14T14:53:46.467Z,3.50
2022-12-14T14:56:36.926Z,2.50
2022-12-14T14:59:28.860Z,1.70
2022-12-14T15:02:01.462Z,2.03
2022-12-14T15:04:47.126Z,1.63
2022-12-14T15:07:33.695Z,1.67
2022-12-14T15:10:11.025Z,1.60
2022-12-14T15:12:56.168Z,1.70
2022-12-14T15:15:42.145Z,1.93
2022-12-14T15:18:33.429Z,2.67
2022-12-14T15:21:10.257Z,2.70
2022-12-14T15:23:50.566Z,2.47
2022-12-14T15:26:35.086Z,2.23
2022-12-14T15:29:04.622Z,1.87
2022-12-14T15:31:42.052Z,1.73
2022-12-14T15:34:21.130Z,2.40
2022-12-14T15:36:51.837Z,2.40
2022-12-14T15:39:35.765Z,1.70
2022-12-14T15:42:18.188Z,1.87
2022-12-14T15:44:53.775Z,1.87
2022-12-14T15:47:30.709Z,1.53
2022-12-14T15:50:24.000Z,1.40
2022-12-14T15:53:03.986Z,1.40
2022-12-14T15:55:43.045Z,1.13
2022-12-14T15:58:20.178Z,1.73
2022-12-14T16:00:52.750Z,1.40
2022-12-14T16:03:29.906Z,1.60
2022-12-14T16:06:01.910Z,1.50
2022-12-14T16:08:35.662Z,1.30
2022-12-14T16:11:12.908Z,1.30
2022-12-14T16:13:46.037Z,1.50
2022-12-14T16:16:16.531Z,1.70
2022-12-14T16:18:51.090Z,1.23
2022-12-14T16:21:37.009Z,1.60
2022-12-14T16:24:25.742Z,1.70
2022-12-14T16:27:01.040Z,1.37
2022-12-14T16:29:34.212Z,1.50
2022-12-14T16:32:16.285Z,1.70
2022-12-14T16:34:54.436Z,1.70
2022-12-14T16:37:32.718Z,1.70
2022-12-14T16:39:54.808Z,2.37
2022-12-14T16:42:28.004Z,2.02
2022-12-14T16:44:57.464Z,2.23
2022-12-14T16:47:37.550Z,2.60
2022-12-14T16:50:56.640Z,2.50
2022-12-14T16:53:32.423Z,2.93
2022-12-14T16:56:22.297Z,2.50
2022-12-14T16:59:01.825Z,2.70
2022-12-14T17:01:47.161Z,2.70
2022-12-14T17:04:21.270Z,2.60
2022-12-14T17:06:58.181Z,2.30
2022-12-14T17:09:30.658Z,2.10
2022-12-14T17:12:03.684Z,1.90
2022-12-14T17:14:33.117Z,1.63
2022-12-14T17:17:04.879Z,2.00
2022-12-14T17:19:38.776Z,2.03
2022-12-14T17:22:12.827Z,2.27
2022-12-14T17:24:42.354Z,2.50
2022-12-14T17:27:17.845Z,2.63
2022-12-14T17:29:47.310Z,2.70
2022-12-14T17:32:18.974Z,3.70
2022-12-14T17:34:48.541Z,3.20
2022-12-14T17:37:21.966Z,3.87
2022-12-14T17:39:52.226Z,3.53
2022-12-14T17:42:23.307Z,2.90
2022-12-14T17:44:56.913Z,2.87
2022-12-14T17:47:27.084Z,2.90
2022-12-14T17:49:56.536Z,2.63
2022-12-14T17:52:33.606Z,2.23
2022-12-14T17:55:03.049Z,2.87
2022-12-14T17:57:32.498Z,2.40
2022-12-14T18:00:09.314Z,2.83
2022-12-14T18:02:40.106Z,2.80
2022-12-14T18:05:16.821Z,2.83
2022-12-14T18:07:46.285Z,2.80
2022-12-14T18:10:18.719Z,3.07
2022-12-14T18:12:48.241Z,3.10
2022-12-14T18:15:22.208Z,3.27
2022-12-14T18:17:51.698Z,3.43
2022-12-14T18:20:23.569Z,3.17
2022-12-14T18:22:53.868Z,2.90
2022-12-14T18:25:39.628Z,3.10
2022-12-14T18:28:11.349Z,2.20
2022-12-14T18:30:49.589Z,2.70
2022-12-14T18:33:21.942Z,2.50
2022-12-14T18:35:53.592Z,2.77
2022-12-14T18:38:23.660Z,2.50
2022-12-14T18:40:58.511Z,2.40
2022-12-14T18:43:29.902Z,2.17
2022-12-14T18:46:00.267Z,2.70
2022-12-14T18:48:29.920Z,2.23
2022-12-14T18:50:59.987Z,2.30
2022-12-14T18:53:30.218Z,2.10
2022-12-14T18:56:00.722Z,2.07
2022-12-14T18:58:31.041Z,2.40
2022-12-14T19:01:02.033Z,1.97
2022-12-14T19:03:34.116Z,2.20
2022-12-14T19:08:42.801Z,2.57
2022-12-14T19:11:31.635Z,2.60
2022-12-14T19:14:02.564Z,3.37
2022-12-14T19:16:32.164Z,2.50
2022-12-14T19:19:01.595Z,2.87
2022-12-14T19:21:31.702Z,3.50
2022-12-14T19:24:01.381Z,3.20
2022-12-14T19:26:31.049Z,3.10
2022-12-14T19:29:00.555Z,2.90
2022-12-14T19:31:30.270Z,3.53
2022-12-14T19:33:59.836Z,2.53
2022-12-14T19:36:29.286Z,2.90
2022-12-14T19:38:59.702Z,2.67
2022-12-14T19:41:29.156Z,2.73
2022-12-14T19:43:58.966Z,2.70
2022-12-14T19:46:28.594Z,2.90
2022-12-14T19:48:59.842Z,2.87
2022-12-14T19:51:29.260Z,2.90
2022-12-14T19:54:00.351Z,2.73
2022-12-14T19:56:29.811Z,2.37
2022-12-14T19:59:03.582Z,3.27
2022-12-14T20:01:34.966Z,2.90
2022-12-14T20:04:08.110Z,3.30
2022-12-14T20:06:37.730Z,2.70
2022-12-14T20:09:08.666Z,2.87
2022-12-14T20:11:38.424Z,2.67
2022-12-14T20:14:07.931Z,2.67
2022-12-14T20:16:37.799Z,2.93
2022-12-14T20:19:08.105Z,2.63
2022-12-14T20:21:37.556Z,2.47
2022-12-14T20:24:07.436Z,2.97
2022-12-14T20:26:37.119Z,2.50
2022-12-14T20:29:08.286Z,2.57
2022-12-14T20:31:38.547Z,2.60
2022-12-14T20:34:09.069Z,2.23
2022-12-14T20:36:38.597Z,2.93
2022-12-14T20:39:08.187Z,2.70
2022-12-14T20:41:37.693Z,2.23
2022-12-14T20:44:11.890Z,2.33
2022-12-14T20:46:47.247Z,3.13
2022-12-14T20:49:23.527Z,3.00
2022-12-14T20:51:52.991Z,2.63
2022-12-14T20:54:22.516Z,3.07
2022-12-14T20:56:52.146Z,3.47
2022-12-14T20:59:21.664Z,3.00
2022-12-14T21:01:55.927Z,5.53
2022-12-14T21:04:22.356Z,3.90
2022-12-14T21:06:52.072Z,3.70
2022-12-14T21:09:21.529Z,3.70
2022-12-14T21:12:10.573Z,3.87
2022-12-14T21:14:47.977Z,3.77
2022-12-14T21:17:17.721Z,3.00
2022-12-14T21:19:47.679Z,3.07
2022-12-14T21:22:21.753Z,3.50
2022-12-14T21:25:07.435Z,3.80
2022-12-14T21:27:31.040Z,3.80
2022-12-14T21:30:01.043Z,3.63
2022-12-14T21:32:30.597Z,3.43
2022-12-14T21:35:00.043Z,3.73
2022-12-14T21:37:29.637Z,3.57
2022-12-14T21:40:00.119Z,3.30
2022-12-14T21:42:29.605Z,3.93
2022-12-14T21:44:59.051Z,4.10
2022-12-14T21:47:30.534Z,3.70
2022-12-14T21:50:00.040Z,3.60
2022-12-14T21:52:30.114Z,3.55
2022-12-14T21:54:59.822Z,4.10
2022-12-14T21:57:49.663Z,3.63
2022-12-14T22:00:18.742Z,4.00
2022-12-14T22:02:48.459Z,3.80
2022-12-14T22:05:18.274Z,4.17
2022-12-14T22:07:47.741Z,4.43
2022-12-14T22:10:22.851Z,4.10
2022-12-14T22:12:48.371Z,4.00
2022-12-14T22:15:17.827Z,3.70
2022-12-14T22:17:47.283Z,4.13
2022-12-14T22:20:16.881Z,3.90
2022-12-14T22:22:46.346Z,3.77
2022-12-14T22:25:15.808Z,3.23
2022-12-14T22:27:49.739Z,3.30
2022-12-14T22:30:16.509Z,2.90
2022-12-14T22:32:46.050Z,3.40
2022-12-14T22:35:15.646Z,3.10
2022-12-14T22:37:45.256Z,2.97
2022-12-14T22:40:14.863Z,4.10
2022-12-14T22:42:44.902Z,4.47
2022-12-14T22:45:14.344Z,4.60
2022-12-14T22:47:44.273Z,6.60
2022-12-14T22:50:13.807Z,6.27
2022-12-14T22:52:43.273Z,5.17
2022-12-14T22:55:14.697Z,5.27
2022-12-14T22:57:47.737Z,4.30
2022-12-14T23:00:18.866Z,4.27
2022-12-14T23:02:50.000Z,4.63
2022-12-14T23:05:20.005Z,5.47
2022-12-14T23:07:49.475Z,5.50
2022-12-14T23:10:37.388Z,4.30
2022-12-14T23:13:25.051Z,3.90
2022-12-14T23:16:12.337Z,3.80
2022-12-14T23:18:59.959Z,3.87
2022-12-14T23:21:47.549Z,3.70
2022-12-14T23:24:34.710Z,3.70
2022-12-14T23:27:22.202Z,3.50
2022-12-14T23:30:09.613Z,3.45
2022-12-14T23:32:56.731Z,3.40
2022-12-14T23:35:43.923Z,3.25
2022-12-14T23:38:31.200Z,3.07
2022-12-14T23:41:20.259Z,4.50
2022-12-14T23:44:07.279Z,4.10
2022-12-14T23:46:54.464Z,3.50
2022-12-14T23:49:41.833Z,3.80
2022-12-14T23:52:29.269Z,3.67
2022-12-14T23:55:16.272Z,3.40
2022-12-14T23:58:03.819Z,3.43
